Time;durP1;ratioP1;P1;durP2;ratioP2;P2;SDS_P1;SDS_P2;PMS_P1;PMS_P2;Temp;Humidity;BMP_temperature;BMP_pressure;BME280_temperature;BME280_humidity;BME280_pressure;Samples;Min_cycle;Max_cycle;Signal;HPM_P1;HPM_P2
2024/04/15 00:01:47;;;;;;;13.57;6.40;;;;;;;11.07;80.96;101018.69;6752082;21;19994;-81
2024/04/15 00:04:16;;;;;;;13.88;6.88;;;;;;;11.22;81.22;101007.78;6751860;21;19998;-80
2024/04/15 00:06:41;;;;;;;11.15;6.85;;;;;;;11.12;82.38;100997.94;6748051;21;20453;-80
2024/04/15 00:09:10;;;;;;;15.52;6.32;;;;;;;10.95;83.73;100987.91;6750440;21;20017;-81
2024/04/15 00:11:35;;;;;;;15.15;7.18;;;;;;;10.85;81.42;100987.00;6750761;21;20523;-80
2024/04/15 00:14:06;;;;;;;10.30;6.78;;;;;;;10.80;81.61;100976.78;6747786;21;20010;-79
2024/04/15 00:16:32;;;;;;;10.85;7.07;;;;;;;10.94;80.63;100967.72;6748473;21;19990;-79
2024/04/15 00:19:03;;;;;;;12.77;7.32;;;;;;;10.97;80.39;100961.31;6746616;21;20030;-79
2024/04/15 00:21:28;;;;;;;13.50;7.45;;;;;;;11.00;82.29;100961.06;6748466;21;19995;-80
2024/04/15 00:23:57;;;;;;;11.55;6.90;;;;;;;10.81;80.89;100953.81;6746989;21;19991;-80
2024/04/15 00:26:25;;;;;;;13.32;7.20;;;;;;;10.89;81.39;100948.69;6748068;21;20009;-81
2024/04/15 00:28:53;;;;;;;16.48;7.18;;;;;;;10.80;79.83;100941.53;6746154;21;19998;-81
2024/04/15 00:31:25;;;;;;;16.25;7.72;;;;;;;10.85;82.86;100928.78;6748231;21;20009;-80
2024/04/15 00:33:53;;;;;;;13.18;7.63;;;;;;;10.93;80.47;100930.75;6747431;21;20009;-79
2024/04/15 00:36:19;;;;;;;13.88;7.93;;;;;;;10.97;81.22;100933.00;6746019;21;20002;-79
2024/04/15 00:38:47;;;;;;;14.85;7.90;;;;;;;10.95;81.76;100934.97;6747364;21;19998;-79
2024/04/15 00:41:13;;;;;;;17.35;7.95;;;;;;;10.82;82.85;100924.56;6747238;21;19990;-80
2024/04/15 00:43:41;;;;;;;15.57;8.07;;;;;;;10.83;82.96;100920.09;6747050;21;20029;-78
2024/04/15 00:46:08;;;;;;;14.05;8.27;;;;;;;10.90;82.31;100921.28;6746499;21;20010;-79
2024/04/15 00:48:39;;;;;;;14.57;8.70;;;;;;;11.00;82.82;100911.56;6755854;21;20009;-80
2024/04/15 00:51:06;;;;;;;13.50;8.60;;;;;;;10.90;83.01;100912.50;6765953;21;19997;-78
2024/04/15 00:53:34;;;;;;;13.85;8.85;;;;;;;10.91;83.15;100907.06;6765503;21;19983;-82
2024/04/15 00:56:02;;;;;;;16.40;8.75;;;;;;;10.67;84.11;100909.09;6765332;21;20001;-83
2024/04/15 00:58:30;;;;;;;17.17;9.23;;;;;;;10.79;82.88;100905.44;6764712;21;20262;-82
2024/04/15 01:00:58;;;;;;;17.23;8.68;;;;;;;10.70;83.85;100903.56;6764687;21;20013;-83
2024/04/15 01:03:28;;;;;;;13.82;8.73;;;;;;;10.61;85.51;100906.00;6764531;21;20009;-80
2024/04/15 01:05:56;;;;;;;18.40;9.15;;;;;;;10.72;84.73;100901.63;6763877;21;19990;-80
2024/04/15 01:08:25;;;;;;;14.90;9.02;;;;;;;10.74;84.37;100894.41;6763748;21;20006;-83
2024/04/15 01:10:51;;;;;;;15.82;8.93;;;;;;;10.74;83.78;100892.59;6764196;21;20001;-80
2024/04/15 01:13:19;;;;;;;18.15;8.90;;;;;;;10.73;84.05;100877.69;6760864;21;19987;-81
2024/04/15 01:15:45;;;;;;;11.35;8.55;;;;;;;10.68;84.38;100876.38;6749712;21;20304;-79
2024/04/15 01:18:14;;;;;;;15.57;9.35;;;;;;;10.72;83.87;100869.88;6748585;21;20014;-80
2024/04/15 01:20:39;;;;;;;13.40;9.65;;;;;;;10.55;85.53;100864.19;6748146;21;19990;-82
2024/04/15 01:23:14;;;;;;;17.75;9.80;;;;;;;10.63;85.14;100859.09;6747199;21;20012;-80
2024/04/15 01:25:42;;;;;;;15.00;9.63;;;;;;;10.45;86.30;100863.28;6749538;21;20290;-80
2024/04/15 01:28:12;;;;;;;14.70;9.48;;;;;;;10.45;86.25;100851.84;6747416;21;20075;-81
2024/04/15 01:30:38;;;;;;;17.58;10.60;;;;;;;10.51;85.83;100846.88;6750060;21;20071;-80
2024/04/15 01:33:07;;;;;;;16.02;9.82;;;;;;;10.31;87.31;100850.31;6751111;21;20017;-79
2024/04/15 01:35:32;;;;;;;16.20;12.02;;;;;;;10.18;88.22;100855.78;6750861;21;20433;-81
2024/04/15 01:38:02;;;;;;;21.35;10.98;;;;;;;10.23;87.55;100858.88;6749879;21;19999;-79
2024/04/15 01:40:27;;;;;;;18.98;11.18;;;;;;;10.17;88.08;100850.59;6750201;21;20012;-81
2024/04/15 01:42:58;;;;;;;20.40;11.27;;;;;;;9.98;88.57;100843.34;6748389;21;19998;-81
2024/04/15 01:45:24;;;;;;;18.52;11.40;;;;;;;9.81;89.83;100844.69;6749187;21;20013;-79
2024/04/15 01:47:52;;;;;;;21.83;11.35;;;;;;;9.60;90.46;100836.72;6748981;21;20030;-79
2024/04/15 01:50:20;;;;;;;16.73;11.63;;;;;;;9.65;89.89;100823.13;6750109;21;19986;-78
2024/04/15 01:52:48;;;;;;;18.77;11.35;;;;;;;9.57;89.96;100816.66;6747116;21;20005;-80
2024/04/15 01:55:14;;;;;;;17.02;11.13;;;;;;;9.47;90.59;100814.88;6749029;21;19998;-80
2024/04/15 01:57:42;;;;;;;23.45;12.27;;;;;;;9.42;91.22;100815.25;6747702;21;19998;-81
2024/04/15 02:00:12;;;;;;;18.48;11.52;;;;;;;9.47;90.98;100814.88;6749688;21;19995;-81
2024/04/15 02:02:40;;;;;;;20.30;12.45;;;;;;;9.36;91.93;100813.06;6749966;21;20006;-79
2024/04/15 02:05:07;;;;;;;21.17;12.43;;;;;;;9.41;91.80;100808.25;6749011;21;19995;-79
2024/04/15 02:07:36;;;;;;;20.33;12.48;;;;;;;9.51;91.48;100816.28;6750548;21;20378;-78
2024/04/15 02:10:03;;;;;;;19.13;12.10;;;;;;;9.66;90.92;100822.16;6748219;21;20009;-80
2024/04/15 02:12:31;;;;;;;17.80;13.32;;;;;;;9.72;91.04;100827.78;6747956;21;19994;-80
2024/04/15 02:14:57;;;;;;;21.70;12.65;;;;;;;9.70;91.05;100813.88;6748505;21;19995;-81
2024/04/15 02:17:28;;;;;;;15.77;12.40;;;;;;;9.82;90.54;100809.38;6747149;21;20365;-80
2024/04/15 02:19:53;;;;;;;18.38;12.50;;;;;;;9.82;90.66;100807.59;6748951;21;20009;-79
2024/04/15 02:22:22;;;;;;;17.50;12.40;;;;;;;9.92;89.98;100810.31;6748212;21;19998;-79
2024/04/15 02:24:47;;;;;;;20.35;12.57;;;;;;;9.85;90.59;100809.13;6745826;21;20328;-79
2024/04/15 02:27:16;;;;;;;18.75;11.88;;;;;;;9.78;91.14;100803.53;6745661;21;20002;-80
2024/04/15 02:29:41;;;;;;;21.17;13.00;;;;;;;9.87;90.98;100813.34;6746049;21;20077;-79
2024/04/15 02:32:09;;;;;;;17.95;12.57;;;;;;;9.83;90.89;100811.91;6742829;21;20038;-81
2024/04/15 02:34:38;;;;;;;20.80;12.48;;;;;;;9.90;90.27;100820.16;6744975;21;19991;-77
2024/04/15 02:37:06;;;;;;;17.52;12.68;;;;;;;9.90;90.90;100814.03;6746048;21;20105;-77
2024/04/15 02:39:32;;;;;;;19.55;12.98;;;;;;;9.95;90.36;100812.69;6749598;21;19999;-78
2024/04/15 02:42:00;;;;;;;17.67;13.15;;;;;;;9.88;90.87;100814.19;6753465;21;20010;-80
2024/04/15 02:44:26;;;;;;;16.73;11.88;;;;;;;9.87;90.64;100808.06;6747878;21;20010;-78
2024/04/15 02:46:54;;;;;;;21.77;12.95;;;;;;;9.76;90.64;100796.66;6753109;21;20405;-79
2024/04/15 02:49:20;;;;;;;20.00;12.75;;;;;;;9.68;91.28;100797.28;6749288;21;19994;-79
2024/04/15 02:51:51;;;;;;;21.73;13.45;;;;;;;9.66;91.26;100798.38;6747673;21;20017;-78
2024/04/15 02:54:16;;;;;;;20.20;12.90;;;;;;;9.57;91.21;100792.88;6748128;21;20009;-78
2024/04/15 02:56:45;;;;;;;19.58;13.65;;;;;;;9.45;91.82;100787.72;6750433;21;19994;-80
2024/04/15 02:59:10;;;;;;;26.00;14.23;;;;;;;9.33;92.06;100786.91;6750772;21;20009;-80
2024/04/15 03:01:39;;;;;;;21.90;13.18;;;;;;;9.29;93.02;100783.69;6751347;21;20371;-80
2024/04/15 03:04:04;;;;;;;21.10;13.93;;;;;;;9.23;92.44;100778.88;6747790;21;20010;-78
2024/04/15 03:06:33;;;;;;;22.38;14.93;;;;;;;9.18;92.13;100783.69;6753151;21;19998;-80
2024/04/15 03:09:01;;;;;;;21.27;14.18;;;;;;;9.18;92.58;100780.22;6753189;21;20011;-82
2024/04/15 03:11:30;;;;;;;21.33;14.02;;;;;;;9.05;92.53;100778.53;6750830;21;19994;-80
2024/04/15 03:13:56;;;;;;;21.88;14.88;;;;;;;9.04;92.01;100782.13;6749138;21;19998;-81
2024/04/15 03:16:24;;;;;;;20.70;13.98;;;;;;;9.00;92.26;100778.06;6747740;21;20371;-80
2024/04/15 03:18:50;;;;;;;18.98;13.65;;;;;;;8.95;92.20;100774.94;6747512;21;19999;-81
2024/04/15 03:21:18;;;;;;;18.92;13.77;;;;;;;8.85;92.64;100774.81;6749219;21;19995;-80
2024/04/15 03:23:45;;;;;;;20.88;14.32;;;;;;;8.83;92.37;100778.53;6749765;21;19994;-81
2024/04/15 03:26:16;;;;;;;23.75;14.32;;;;;;;8.79;92.37;100769.16;6747468;21;20002;-81
2024/04/15 03:28:42;;;;;;;19.92;13.73;;;;;;;8.69;92.09;100762.94;6748107;21;19994;-79
2024/04/15 03:31:10;;;;;;;25.42;13.88;;;;;;;8.64;91.72;100763.28;6748417;21;20096;-80
2024/04/15 03:33:38;;;;;;;21.50;13.68;;;;;;;8.63;91.14;100758.13;6748056;21;19990;-78
2024/04/15 03:36:07;;;;;;;22.42;13.23;;;;;;;8.57;90.83;100762.06;6747795;21;19990;-81
2024/04/15 03:38:36;;;;;;;23.42;13.48;;;;;;;8.53;90.13;100760.66;6748410;21;19995;-79
2024/04/15 03:41:04;;;;;;;15.95;11.98;;;;;;;8.49;90.18;100762.69;6748031;21;19995;-81
2024/04/15 03:43:36;;;;;;;23.00;13.52;;;;;;;8.50;89.24;100760.88;6747938;21;19990;-81
2024/04/15 03:46:04;;;;;;;20.83;12.38;;;;;;;8.46;88.56;100757.63;6782650;21;20005;-81
2024/04/15 03:48:33;;;;;;;20.55;12.15;;;;;;;8.39;89.05;100760.84;6796104;21;20005;-79
2024/04/15 03:50:59;;;;;;;19.73;12.15;;;;;;;8.38;88.45;100753.91;6798529;21;20021;-79
2024/04/15 03:53:27;;;;;;;18.60;11.90;;;;;;;8.39;88.66;100756.41;6796842;21;20467;-80
2024/04/15 03:55:53;;;;;;;17.60;11.38;;;;;;;8.35;88.23;100750.53;6797306;21;20064;-83
2024/04/15 03:58:22;;;;;;;17.77;11.57;;;;;;;8.32;88.84;100744.63;6799532;21;19998;-78
2024/04/15 04:00:50;;;;;;;20.52;11.60;;;;;;;8.29;88.62;100736.94;6801137;21;20005;-81
2024/04/15 04:03:18;;;;;;;17.77;11.27;;;;;;;8.22;88.68;100739.22;6799785;21;20411;-78
2024/04/15 04:05:54;;;;;;;20.25;11.05;;;;;;;8.22;88.34;100735.75;6797930;21;20096;-79
2024/04/15 04:08:20;;;;;;;19.70;11.02;;;;;;;8.21;88.42;100739.31;6795575;21;20012;-79
2024/04/15 04:10:48;;;;;;;21.63;11.93;;;;;;;8.17;88.59;100735.22;6795351;21;19997;-79
2024/04/15 04:13:14;;;;;;;16.38;10.98;;;;;;;8.15;88.14;100737.16;6795994;21;20385;-79
2024/04/15 04:15:44;;;;;;;20.60;11.00;;;;;;;8.13;88.51;100737.28;6797537;21;19990;-80
2024/04/15 04:18:12;;;;;;;18.05;11.18;;;;;;;8.14;87.62;100732.84;6798014;21;19998;-78
2024/04/15 04:20:40;;;;;;;18.65;9.80;;;;;;;8.09;87.38;100728.75;6799539;21;20377;-78
2024/04/15 04:23:06;;;;;;;17.05;9.90;;;;;;;8.03;87.72;100731.84;6798522;21;20013;-81
2024/04/15 04:25:34;;;;;;;17.23;10.38;;;;;;;8.00;87.71;100723.34;6799521;21;20341;-81
2024/04/15 04:28:00;;;;;;;17.27;9.70;;;;;;;7.99;87.59;100716.38;6801291;21;20013;-81
2024/04/15 04:30:28;;;;;;;18.05;10.18;;;;;;;7.96;87.45;100728.00;6802877;21;20026;-81
2024/04/15 04:32:54;;;;;;;17.58;10.30;;;;;;;7.98;86.76;100712.06;6802641;21;19990;-81
2024/04/15 04:35:25;;;;;;;18.30;9.90;;;;;;;7.92;86.67;100710.75;6815300;21;20025;-82
2024/04/15 04:37:51;;;;;;;15.68;9.02;;;;;;;7.93;87.10;100711.56;6818073;21;20009;-81
2024/04/15 04:40:19;;;;;;;18.73;10.07;;;;;;;7.91;87.27;100709.06;6818016;21;20036;-81
2024/04/15 04:42:44;;;;;;;14.68;9.57;;;;;;;7.87;87.18;100706.78;6802663;21;19997;-81
2024/04/15 04:45:13;;;;;;;17.88;9.23;;;;;;;7.82;88.02;100715.03;6801566;21;20012;-80
2024/04/15 04:47:38;;;;;;;15.15;8.88;;;;;;;7.86;87.10;100724.38;6802380;21;20043;-80
2024/04/15 04:50:07;;;;;;;16.65;9.23;;;;;;;7.89;86.99;100716.22;6802004;21;20012;-81
2024/04/15 04:52:35;;;;;;;13.73;9.23;;;;;;;7.87;86.45;100704.13;6802797;21;19994;-82
2024/04/15 04:55:04;;;;;;;21.88;9.38;;;;;;;7.91;86.07;100705.59;6801432;21;20444;-81
2024/04/15 04:57:30;;;;;;;17.92;8.93;;;;;;;7.89;87.50;100702.22;6802065;21;19998;-81
2024/04/15 04:59:58;;;;;;;22.70;9.85;;;;;;;7.87;86.77;100699.72;6807781;21;19989;-81
2024/04/15 05:02:25;;;;;;;21.88;9.95;;;;;;;7.94;86.51;100703.53;6801658;21;19993;-81
2024/04/15 05:04:53;;;;;;;16.75;9.40;;;;;;;7.97;85.85;100694.59;6799677;21;19990;-82
2024/04/15 05:07:19;;;;;;;24.27;9.10;;;;;;;7.99;86.38;100684.75;6802339;21;20332;-81
2024/04/15 05:09:50;;;;;;;17.27;8.77;;;;;;;8.02;86.13;100677.47;6803329;21;19997;-82
2024/04/15 05:12:15;;;;;;;16.90;7.78;;;;;;;8.07;86.00;100667.41;6803688;21;20005;-81
2024/04/15 05:14:44;;;;;;;12.95;8.82;;;;;;;8.04;85.66;100675.56;6799944;21;20113;-79
2024/04/15 05:17:10;;;;;;;16.92;8.77;;;;;;;8.08;85.25;100663.84;6800045;21;19993;-81
2024/04/15 05:19:41;;;;;;;15.15;7.72;;;;;;;8.23;84.92;100668.88;6801388;21;20051;-80
2024/04/15 05:22:07;;;;;;;19.75;9.15;;;;;;;8.34;84.97;100671.50;6801057;21;19990;-78
2024/04/15 05:24:35;;;;;;;15.05;7.57;;;;;;;8.40;83.28;100671.09;6800508;21;20012;-80
2024/04/15 05:27:04;;;;;;;13.10;6.85;;;;;;;8.57;82.21;100664.47;6802348;21;19990;-82
2024/04/15 05:29:32;;;;;;;15.35;7.30;;;;;;;8.68;82.14;100671.56;6800866;21;20016;-83
2024/04/15 05:31:58;;;;;;;20.17;6.95;;;;;;;8.71;81.19;100671.31;6802114;21;19993;-79
2024/04/15 05:34:26;;;;;;;14.65;7.05;;;;;;;8.79;81.54;100667.09;6799880;21;20028;-81
2024/04/15 05:36:52;;;;;;;13.50;6.82;;;;;;;8.90;80.77;100658.34;6800942;21;19990;-80
2024/04/15 05:39:20;;;;;;;18.50;6.47;;;;;;;8.97;79.12;100663.94;6799193;21;19993;-80
2024/04/15 05:41:45;;;;;;;12.27;6.30;;;;;;;9.04;79.76;100651.94;6799628;21;19997;-82
2024/04/15 05:44:16;;;;;;;10.15;5.93;;;;;;;9.07;79.10;100657.81;6801230;21;19993;-78
2024/04/15 05:46:48;;;;;;;16.33;6.97;;;;;;;9.20;79.01;100646.28;6806052;21;20431;-79
2024/04/15 05:49:16;;;;;;;14.88;5.93;;;;;;;9.24;78.46;100645.03;6805339;21;20425;-82
2024/04/15 05:51:43;;;;;;;14.02;5.70;;;;;;;9.44;77.10;100644.25;6799758;21;20008;-81
2024/04/15 05:54:11;;;;;;;9.30;5.45;;;;;;;9.64;76.00;100637.31;6800371;21;20026;-78
2024/04/15 05:56:37;;;;;;;11.40;5.07;;;;;;;10.18;74.23;100638.91;6800091;21;20008;-81
2024/04/15 05:59:05;;;;;;;14.43;5.53;;;;;;;10.72;72.08;100643.06;6799910;21;19997;-81
2024/04/15 06:01:33;;;;;;;10.02;5.18;;;;;;;11.05;70.51;100636.59;6800149;21;20005;-81
2024/04/15 06:04:01;;;;;;;9.30;5.18;;;;;;;11.13;68.86;100625.31;6793552;21;20013;-78
2024/04/15 06:06:27;;;;;;;15.13;5.30;;;;;;;11.17;68.58;100626.72;6798323;21;19994;-80
2024/04/15 06:08:57;;;;;;;16.77;4.90;;;;;;;10.91;69.24;100629.03;6797124;21;20010;-77
2024/04/15 06:11:22;;;;;;;13.23;5.60;;;;;;;10.95;69.32;100616.38;6797956;21;20000;-79
2024/04/15 06:13:51;;;;;;;9.90;5.03;;;;;;;10.46;71.76;100616.25;6798709;21;20327;-77
2024/04/15 06:16:16;;;;;;;11.18;5.38;;;;;;;10.69;71.43;100610.72;6800203;21;20458;-79
2024/04/15 06:18:47;;;;;;;12.00;5.97;;;;;;;11.34;67.98;100590.72;6798427;21;19993;-80
2024/04/15 06:21:13;;;;;;;12.20;5.22;;;;;;;10.81;70.30;100599.06;6798399;21;19990;-80
2024/04/15 06:23:42;;;;;;;17.30;5.32;;;;;;;10.45;72.30;100603.16;6803002;21;20004;-79
2024/04/15 06:26:08;;;;;;;11.75;5.35;;;;;;;10.21;73.88;100603.41;6804880;21;19994;-80
2024/04/15 06:28:36;;;;;;;11.48;5.50;;;;;;;10.02;74.02;100601.53;6803471;21;20077;-80
2024/04/15 06:31:02;;;;;;;9.80;5.35;;;;;;;9.73;76.15;100601.34;6802356;21;20012;-81
2024/04/15 06:33:31;;;;;;;25.63;6.55;;;;;;;9.66;76.27;100595.75;6804671;21;20029;-80
2024/04/15 06:35:59;;;;;;;12.93;5.93;;;;;;;9.58;76.40;100593.75;6806391;21;19994;-79
2024/04/15 06:38:27;;;;;;;13.95;5.65;;;;;;;9.77;76.61;100598.31;6817121;21;20001;-80
2024/04/15 06:40:53;;;;;;;16.88;5.50;;;;;;;9.70;75.54;100588.41;6820223;21;20009;-84
2024/04/15 06:43:21;;;;;;;14.82;5.43;;;;;;;9.60;76.65;100581.25;6819806;21;19998;-81
2024/04/15 06:45:47;;;;;;;14.38;5.63;;;;;;;9.57;76.17;100589.44;6807257;21;19994;-78
2024/04/15 06:48:16;;;;;;;15.60;6.38;;;;;;;9.55;75.76;100585.22;6800372;21;20033;-82
2024/04/15 06:50:41;;;;;;;15.20;5.40;;;;;;;9.68;75.63;100577.13;6801826;21;20052;-80
2024/04/15 06:53:12;;;;;;;13.80;6.30;;;;;;;9.83;76.32;100574.03;6797506;21;19994;-78
2024/04/15 06:55:38;;;;;;;17.00;5.82;;;;;;;10.15;74.64;100574.88;6801280;21;20005;-79
2024/04/15 06:58:06;;;;;;;16.65;6.68;;;;;;;10.25;72.78;100559.91;6799640;21;19998;-79
2024/04/15 07:00:32;;;;;;;13.32;5.50;;;;;;;10.32;73.40;100558.41;6801289;21;19993;-80
2024/04/15 07:03:00;;;;;;;17.52;7.40;;;;;;;10.25;73.78;100560.75;6801915;21;19982;-81
2024/04/15 07:05:26;;;;;;;13.98;5.95;;;;;;;10.47;72.91;100554.41;6802380;21;20009;-81
2024/04/15 07:07:54;;;;;;;13.05;5.78;;;;;;;10.19;73.59;100555.97;6800868;21;20017;-83
2024/04/15 07:10:22;;;;;;;13.65;5.57;;;;;;;10.03;73.81;100569.66;6798742;21;20092;-81
2024/04/15 07:12:51;;;;;;;14.95;5.72;;;;;;;10.11;73.48;100555.78;6798986;21;20008;-80
2024/04/15 07:15:16;;;;;;;15.00;7.05;;;;;;;10.20;73.48;100554.97;6798410;21;19994;-80
2024/04/15 07:17:45;;;;;;;15.60;6.18;;;;;;;10.32;72.74;100558.41;6798830;21;20011;-80
2024/04/15 07:20:12;;;;;;;17.83;5.72;;;;;;;10.63;71.72;100565.31;6797654;21;19994;-78
2024/04/15 07:22:40;;;;;;;14.68;5.32;;;;;;;10.68;70.89;100566.72;6798264;21;20441;-78
2024/04/15 07:25:06;;;;;;;13.52;5.68;;;;;;;10.28;72.47;100571.06;6797383;21;20488;-80
2024/04/15 07:27:39;;;;;;;16.17;5.55;;;;;;;10.08;73.18;100564.81;6797646;21;20393;-79
2024/04/15 07:30:06;;;;;;;14.25;6.13;;;;;;;9.97;73.74;100556.16;6798131;21;19994;-80
2024/04/15 07:32:34;;;;;;;18.95;6.15;;;;;;;9.85;73.68;100552.75;6797593;21;19997;-80
2024/04/15 07:35:00;;;;;;;14.88;5.43;;;;;;;9.72;75.11;100555.59;6797914;21;20009;-80
2024/04/15 07:37:28;;;;;;;19.77;6.05;;;;;;;9.65;74.71;100546.53;6798478;21;19993;-80
2024/04/15 07:39:54;;;;;;;17.88;6.07;;;;;;;9.79;73.95;100537.41;6798708;21;19997;-79
2024/04/15 07:42:22;;;;;;;14.82;6.25;;;;;;;10.17;73.11;100541.19;6795831;21;20008;-79
2024/04/15 07:44:50;;;;;;;14.50;5.43;;;;;;;10.47;72.10;100535.06;6795194;21;20008;-79
2024/04/15 07:47:19;;;;;;;17.58;5.72;;;;;;;10.86;69.72;100509.47;6796898;21;19993;-78
2024/04/15 07:49:45;;;;;;;11.43;5.68;;;;;;;11.02;69.28;100515.03;6797618;21;20013;-79
2024/04/15 07:52:13;;;;;;;17.65;5.32;;;;;;;11.79;65.93;100500.00;6795187;21;20001;-79
2024/04/15 07:54:39;;;;;;;11.77;5.40;;;;;;;12.05;64.62;100498.34;6794935;21;20413;-77
2024/04/15 07:57:08;;;;;;;11.18;5.10;;;;;;;12.88;61.55;100487.63;6793994;21;20028;-78
2024/04/15 07:59:33;;;;;;;14.00;5.15;;;;;;;13.68;60.66;100480.44;6794526;21;19993;-77
2024/04/15 08:02:05;;;;;;;13.65;4.93;;;;;;;13.93;59.09;100484.06;6794664;21;20047;-78
2024/04/15 08:04:31;;;;;;;13.55;4.43;;;;;;;14.10;55.61;100480.44;6794068;21;20013;-76
2024/04/15 08:06:59;;;;;;;11.52;5.07;;;;;;;14.53;55.59;100480.44;6793520;21;20389;-77
2024/04/15 08:09:25;;;;;;;11.68;4.40;;;;;;;15.04;53.03;100473.97;6793434;21;19995;-78
2024/04/15 08:11:53;;;;;;;11.60;4.55;;;;;;;15.15;52.91;100479.00;6793978;21;20341;-78
2024/04/15 08:14:20;;;;;;;11.23;4.30;;;;;;;14.85;52.98;100479.66;6793319;21;20005;-78
2024/04/15 08:16:48;;;;;;;9.10;4.53;;;;;;;14.67;54.58;100482.47;6793396;21;20268;-77
2024/04/15 08:19:16;;;;;;;10.30;4.43;;;;;;;14.94;52.65;100468.00;6793025;21;19994;-77
2024/04/15 08:21:44;;;;;;;12.60;4.18;;;;;;;14.53;52.72;100470.63;6793236;21;19994;-76
2024/04/15 08:24:10;;;;;;;10.32;3.85;;;;;;;14.35;54.02;100462.72;6792426;21;19998;-79
2024/04/15 08:26:39;;;;;;;16.13;4.28;;;;;;;13.35;56.07;100453.66;6792863;21;20076;-76
2024/04/15 08:29:05;;;;;;;13.52;4.20;;;;;;;13.41;56.54;100441.56;6793578;21;20095;-76
2024/04/15 08:31:33;;;;;;;8.50;4.05;;;;;;;13.23;56.61;100443.44;6792106;21;20080;-77
2024/04/15 08:33:59;;;;;;;13.27;4.30;;;;;;;13.29;58.11;100442.81;6793872;21;19989;-78
2024/04/15 08:36:30;;;;;;;9.15;3.72;;;;;;;13.18;59.34;100435.06;6793893;21;20318;-77
2024/04/15 08:38:56;;;;;;;11.18;4.07;;;;;;;12.93;57.28;100421.59;6794050;21;20424;-79
2024/04/15 08:41:29;;;;;;;11.23;4.38;;;;;;;12.79;58.22;100420.31;6797626;21;20005;-78
2024/04/15 08:44:03;;;;;;;16.20;3.95;;;;;;;12.74;57.97;100413.81;6800773;21;19994;-79
2024/04/15 08:46:34;;;;;;;10.30;4.18;;;;;;;12.60;59.10;100424.00;6804182;21;20009;-80
2024/04/15 08:49:00;;;;;;;12.93;5.32;;;;;;;12.73;58.92;100420.13;6803568;21;19993;-79
2024/04/15 08:51:31;;;;;;;11.13;4.43;;;;;;;12.82;58.15;100424.50;6803085;21;19993;-78
2024/04/15 08:53:56;;;;;;;11.77;4.30;;;;;;;13.12;57.48;100415.25;6799724;21;20274;-79
2024/04/15 08:56:26;;;;;;;12.88;4.38;;;;;;;13.00;56.83;100412.03;6799813;21;20005;-79
2024/04/15 08:58:56;;;;;;;13.30;3.92;;;;;;;13.02;57.05;100404.72;6799959;21;19993;-78
2024/04/15 09:01:24;;;;;;;10.38;3.88;;;;;;;12.93;57.96;100402.16;6798389;21;20003;-79
2024/04/15 09:03:50;;;;;;;13.10;4.32;;;;;;;13.06;58.49;100392.78;6797812;21;19997;-79
2024/04/15 09:06:19;;;;;;;13.00;4.25;;;;;;;13.31;57.18;100393.81;6797487;21;20301;-79
2024/04/15 09:08:48;;;;;;;12.88;4.28;;;;;;;13.53;56.13;100391.63;6797370;21;19994;-80
2024/04/15 09:11:17;;;;;;;6.53;3.88;;;;;;;13.58;55.67;100381.34;6797734;21;20130;-79
2024/04/15 09:13:42;;;;;;;11.77;4.20;;;;;;;13.48;56.09;100373.44;6798199;21;19993;-78
2024/04/15 09:16:11;;;;;;;12.25;4.13;;;;;;;13.60;56.31;100374.00;6796594;21;20012;-79
2024/04/15 09:18:38;;;;;;;13.60;4.35;;;;;;;13.66;55.51;100362.72;6796738;21;19990;-80
2024/04/15 09:21:07;;;;;;;11.65;3.70;;;;;;;13.58;54.79;100365.38;6796951;21;19994;-80
2024/04/15 09:23:32;;;;;;;11.32;4.25;;;;;;;13.68;54.31;100342.13;6797842;21;19997;-79
2024/04/15 09:26:03;;;;;;;11.77;3.80;;;;;;;13.90;54.26;100341.53;6797195;21;19998;-79
2024/04/15 09:28:29;;;;;;;14.98;4.28;;;;;;;14.54;53.05;100328.47;6797832;21;20356;-79
2024/04/15 09:30:58;;;;;;;8.65;3.45;;;;;;;14.09;52.67;100329.75;6796386;21;20075;-79
2024/04/15 09:33:25;;;;;;;11.00;3.75;;;;;;;14.08;51.02;100321.94;6796878;21;20095;-79
2024/04/15 09:35:55;;;;;;;8.02;3.60;;;;;;;14.13;51.24;100307.16;6796514;21;20309;-78
2024/04/15 09:38:23;;;;;;;10.95;3.80;;;;;;;14.14;51.91;100306.13;6796975;21;20008;-79
2024/04/15 09:40:52;;;;;;;11.02;4.20;;;;;;;14.11;52.12;100301.16;6796783;21;19998;-77
2024/04/15 09:43:21;;;;;;;9.43;3.53;;;;;;;14.07;50.54;100289.19;6794444;21;19997;-77
2024/04/15 09:45:51;;;;;;;14.57;3.53;;;;;;;14.07;51.61;100289.19;6794549;21;20405;-79
2024/04/15 09:48:22;;;;;;;9.93;3.85;;;;;;;14.62;50.22;100280.53;6793510;21;20284;-79
2024/04/15 09:50:55;;;;;;;9.07;3.53;;;;;;;14.93;49.82;100279.81;6795087;21;20071;-79
2024/04/15 09:53:30;;;;;;;10.23;3.75;;;;;;;14.93;48.71;100274.47;6798538;21;20396;-78
2024/04/15 09:56:05;;;;;;;10.13;3.85;;;;;;;14.65;50.56;100266.88;6800817;21;20332;-76
2024/04/15 09:58:36;;;;;;;7.07;3.17;;;;;;;14.86;50.03;100265.50;6798658;21;20001;-79
2024/04/15 10:01:08;;;;;;;10.18;3.33;;;;;;;15.28;48.68;100264.34;6795663;21;20001;-80
2024/04/15 10:03:37;;;;;;;12.25;3.90;;;;;;;14.93;49.89;100257.66;6797119;21;20024;-79
2024/04/15 10:06:07;;;;;;;8.80;3.75;;;;;;;14.61;50.73;100254.91;6795814;21;19997;-78
2024/04/15 10:08:33;;;;;;;8.98;3.45;;;;;;;14.20;51.29;100250.59;6796046;21;20002;-79
2024/04/15 10:11:01;;;;;;;10.25;4.25;;;;;;;14.04;51.72;100243.44;6796289;21;20074;-79
2024/04/15 10:13:27;;;;;;;6.40;3.38;;;;;;;13.60;51.78;100241.88;6796114;21;20008;-79
2024/04/15 10:16:03;;;;;;;11.95;4.10;;;;;;;13.41;51.61;100231.56;6795888;21;20005;-78
2024/04/15 10:18:29;;;;;;;8.57;3.45;;;;;;;13.30;51.81;100230.00;6796046;21;20008;-79
2024/04/15 10:20:58;;;;;;;9.38;3.38;;;;;;;13.86;50.81;100201.88;6796519;21;19990;-79
2024/04/15 10:23:27;;;;;;;8.82;3.63;;;;;;;13.95;50.49;100204.53;6797113;21;19990;-79
2024/04/15 10:25:56;;;;;;;10.27;3.33;;;;;;;13.97;49.32;100191.88;6796086;21;20342;-77
2024/04/15 10:28:21;;;;;;;9.65;3.35;;;;;;;14.45;47.08;100182.19;6796061;21;19994;-79
2024/04/15 10:30:51;;;;;;;13.90;3.60;;;;;;;14.89;47.15;100171.91;6796640;21;20011;-78
2024/04/15 10:33:20;;;;;;;9.35;3.83;;;;;;;15.16;47.37;100168.75;6797073;21;20312;-79
2024/04/15 10:35:52;;;;;;;8.57;4.18;;;;;;;14.63;46.70;100148.19;6796343;21;20340;-79
2024/04/15 10:38:18;;;;;;;8.60;4.13;;;;;;;14.81;46.80;100137.31;6797045;21;20009;-79
2024/04/15 10:40:49;;;;;;;10.57;3.72;;;;;;;15.14;45.50;100130.81;6798068;21;19994;-79
2024/04/15 10:43:16;;;;;;;10.00;3.40;;;;;;;15.22;45.27;100134.41;6799904;21;20108;-78
2024/04/15 10:45:45;;;;;;;7.80;3.35;;;;;;;15.40;43.86;100121.63;6801772;21;20009;-78
2024/04/15 10:48:10;;;;;;;9.35;3.30;;;;;;;15.84;44.41;100116.44;6806567;21;20008;-78
2024/04/15 10:50:42;;;;;;;7.85;3.58;;;;;;;16.01;43.47;100118.97;6805960;21;19993;-79
2024/04/15 10:53:08;;;;;;;8.13;3.75;;;;;;;16.34;42.89;100111.44;6799750;21;20013;-78
2024/04/15 10:55:36;;;;;;;9.85;3.65;;;;;;;16.16;41.21;100107.31;6797960;21;20416;-78
2024/04/15 10:58:08;;;;;;;9.48;3.20;;;;;;;16.54;39.72;100091.16;6798260;21;20013;-80
2024/04/15 11:00:36;;;;;;;8.25;3.60;;;;;;;16.40;41.03;100089.34;6802557;21;20025;-78
2024/04/15 11:03:05;;;;;;;13.60;3.38;;;;;;;16.26;41.97;100064.31;6801284;21;19993;-79
2024/04/15 11:05:34;;;;;;;9.73;3.22;;;;;;;16.02;41.54;100086.75;6803315;21;20063;-79
2024/04/15 11:08:05;;;;;;;7.93;3.40;;;;;;;15.45;42.17;100062.41;6802084;21;20001;-78
2024/04/15 11:10:31;;;;;;;8.10;3.65;;;;;;;16.06;41.97;100052.53;6800901;21;20012;-80
2024/04/15 11:13:00;;;;;;;6.80;2.83;;;;;;;16.60;41.89;100020.94;6800632;21;19998;-79
2024/04/15 11:15:26;;;;;;;8.50;3.25;;;;;;;16.71;40.69;100008.13;6800954;21;20021;-80
2024/04/15 11:17:55;;;;;;;8.93;3.17;;;;;;;16.81;39.85;100014.03;6798869;21;20521;-80
2024/04/15 11:20:22;;;;;;;10.55;3.05;;;;;;;16.30;41.17;100006.03;6799635;21;19990;-81
2024/04/15 11:22:51;;;;;;;14.25;3.10;;;;;;;16.81;40.17;100003.34;6795766;21;19993;-79